Time,TemperatureF,DewpointF,PressureIn,WindDirection,WindDirectionDegrees,WindSpeedMPH,WindSpeedGustMPH,Humidity,HourlyPrecipIn,Conditions,Clouds,dailyrainin,SolarRadiationWatts/m^2,SoftwareType,DateUTC
2013-07-25 00:00:00,49.0,47.0,-100.00,West,270,0.0,-999.0,94,-99.99,,,-99.99,0.000000,,2013-07-25 04:00:00,
2013-07-25 00:43:00,49.0,47.0,-100.00,West,270,0.0,-999.0,94,-99.99,,,-99.99,0.000000,,2013-07-25 04:43:00,
2013-07-25 00:53:00,49.0,47.0,-100.00,West,270,0.0,-999.0,94,-99.99,,,-99.99,0.000000,,2013-07-25 04:53:00,
2013-07-25 01:00:00,49.0,47.0,-100.00,West,270,0.0,-999.0,95,-99.99,,,-99.99,0.000000,,2013-07-25 05:00:00,
2013-07-25 01:43:00,49.0,47.0,-100.00,West,270,0.0,-999.0,95,-99.99,,,-99.99,0.000000,,2013-07-25 05:43:00,
2013-07-25 01:52:00,49.0,47.0,-100.00,West,270,0.0,-999.0,95,-99.99,,,-99.99,0.000000,,2013-07-25 05:52:00,
2013-07-25 02:00:00,48.0,47.0,-100.00,West,270,0.0,-999.0,96,-99.99,,,-99.99,0.000000,,2013-07-25 06:00:00,
2013-07-25 02:32:00,48.0,47.0,-100.00,West,270,0.0,-999.0,96,-99.99,,,-99.99,0.000000,,2013-07-25 06:32:00,
2013-07-25 02:42:00,48.0,47.0,-100.00,West,270,0.0,-999.0,96,-99.99,,,-99.99,0.000000,,2013-07-25 06:42:00,
2013-07-25 02:52:00,48.0,47.0,-100.00,West,270,0.0,-999.0,96,-99.99,,,-99.99,0.000000,,2013-07-25 06:52:00,
2013-07-25 03:00:00,48.0,47.0,-100.00,SSW,202,0.0,-999.0,96,-99.99,,,-99.99,0.000000,,2013-07-25 07:00:00,
2013-07-25 03:43:00,48.0,47.0,-100.00,SSW,202,0.0,-999.0,96,-99.99,,,-99.99,0.000000,,2013-07-25 07:43:00,
2013-07-25 03:53:00,48.0,47.0,-100.00,SSW,202,0.0,-999.0,96,-99.99,,,-99.99,0.000000,,2013-07-25 07:53:00,
2013-07-25 04:00:00,48.0,47.0,-100.00,South,180,0.0,-999.0,96,-99.99,,,-99.99,0.000000,,2013-07-25 08:00:00,
2013-07-25 04:44:00,48.0,47.0,-100.00,South,180,0.0,-999.0,96,-99.99,,,-99.99,0.000000,,2013-07-25 08:44:00,
2013-07-25 04:52:00,48.0,47.0,-100.00,South,180,0.0,-999.0,96,-99.99,,,-99.99,0.000000,,2013-07-25 08:52:00,
2013-07-25 05:00:00,51.0,50.0,-100.00,SSW,202,1.0,-999.0,95,-99.99,,,-99.99,0.000000,,2013-07-25 09:00:00,
2013-07-25 05:43:00,51.0,50.0,-100.00,SSW,202,1.0,-999.0,95,-99.99,,,-99.99,0.000000,,2013-07-25 09:43:00,
2013-07-25 05:53:00,51.0,50.0,-100.00,SSW,202,1.0,-999.0,95,-99.99,,,-99.99,0.000000,,2013-07-25 09:53:00,
2013-07-25 06:00:00,56.0,49.0,-100.00,South,180,1.0,-999.0,76,-99.99,,,-99.99,0.000000,,2013-07-25 10:00:00,
2013-07-25 06:43:00,56.0,49.0,-100.00,South,180,1.0,-999.0,76,-99.99,,,-99.99,0.000000,,2013-07-25 10:43:00,
2013-07-25 06:53:00,56.0,49.0,-100.00,South,180,1.0,-999.0,76,-99.99,,,-99.99,0.000000,,2013-07-25 10:53:00,
2013-07-25 07:00:00,55.0,47.0,-100.00,SSE,157,0.0,-999.0,75,-99.99,,,-99.99,12.760000,,2013-07-25 11:00:00,
2013-07-25 07:43:00,55.0,47.0,-100.00,SSE,157,0.0,-999.0,75,-99.99,,,-99.99,12.760000,,2013-07-25 11:43:00,
2013-07-25 07:52:00,55.0,47.0,-100.00,SSE,157,0.0,-999.0,75,-99.99,,,-99.99,12.760000,,2013-07-25 11:52:00,
2013-07-25 08:00:00,59.0,47.0,-100.00,South,180,1.0,-999.0,64,-99.99,,,-99.99,63.799999,,2013-07-25 12:00:00,
2013-07-25 08:45:00,59.0,47.0,-100.00,South,180,1.0,-999.0,64,-99.99,,,-99.99,63.799999,,2013-07-25 12:45:00,
2013-07-25 08:53:00,59.0,47.0,-100.00,South,180,1.0,-999.0,64,-99.99,,,-99.99,63.799999,,2013-07-25 12:53:00,
2013-07-25 09:00:00,61.0,49.0,-100.00,South,180,3.0,-999.0,66,-99.99,,,-99.99,109.040001,,2013-07-25 13:00:00,
2013-07-25 09:43:00,61.0,49.0,-100.00,South,180,3.0,-999.0,66,-99.99,,,-99.99,109.040001,,2013-07-25 13:43:00,
2013-07-25 09:53:00,61.0,49.0,-100.00,South,180,3.0,-999.0,66,-99.99,,,-99.99,109.040001,,2013-07-25 13:53:00,
2013-07-25 10:00:00,64.0,51.0,-100.00,SSW,202,5.0,-999.0,61,-99.99,,,-99.99,284.200012,,2013-07-25 14:00:00,
2013-07-25 10:43:00,64.0,51.0,-100.00,SSW,202,5.0,-999.0,61,-99.99,,,-99.99,284.200012,,2013-07-25 14:43:00,
2013-07-25 10:53:00,64.0,51.0,-100.00,SSW,202,5.0,-999.0,61,-99.99,,,-99.99,284.200012,,2013-07-25 14:53:00,
2013-07-25 11:00:00,67.0,52.0,-100.00,SW,225,6.0,-999.0,57,-99.99,,,-99.99,556.799988,,2013-07-25 15:00:00,
2013-07-25 11:44:00,67.0,52.0,-100.00,SW,225,6.0,-999.0,57,-99.99,,,-99.99,556.799988,,2013-07-25 15:44:00,
2013-07-25 11:53:00,67.0,52.0,-100.00,SW,225,6.0,-999.0,57,-99.99,,,-99.99,556.799988,,2013-07-25 15:53:00,
2013-07-25 12:00:00,70.0,53.0,-100.00,WSW,247,6.0,-999.0,55,-99.99,,,-99.99,747.039978,,2013-07-25 16:00:00,
2013-07-25 12:45:00,70.0,53.0,-100.00,WSW,247,6.0,-999.0,55,-99.99,,,-99.99,747.039978,,2013-07-25 16:45:00,
2013-07-25 12:53:00,70.0,53.0,-100.00,WSW,247,6.0,-999.0,55,-99.99,,,-99.99,747.039978,,2013-07-25 16:53:00,
2013-07-25 13:00:00,70.0,56.0,-100.00,WSW,247,6.0,-999.0,60,-99.99,,,-99.99,839.840027,,2013-07-25 17:00:00,
2013-07-25 13:43:00,70.0,56.0,-100.00,WSW,247,6.0,-999.0,60,-99.99,,,-99.99,839.840027,,2013-07-25 17:43:00,
2013-07-25 13:53:00,70.0,56.0,-100.00,WSW,247,6.0,-999.0,60,-99.99,,,-99.99,839.840027,,2013-07-25 17:53:00,
2013-07-25 14:00:00,71.0,57.0,-100.00,WSW,247,7.0,-999.0,62,-99.99,,,-99.99,882.760010,,2013-07-25 18:00:00,
2013-07-25 14:43:00,71.0,57.0,-100.00,WSW,247,7.0,-999.0,62,-99.99,,,-99.99,882.760010,,2013-07-25 18:43:00,
2013-07-25 14:52:00,71.0,57.0,-100.00,WSW,247,7.0,-999.0,62,-99.99,,,-99.99,882.760010,,2013-07-25 18:52:00,
2013-07-25 15:00:00,72.0,57.0,-100.00,WSW,247,6.0,-999.0,59,-99.99,,,-99.99,879.280029,,2013-07-25 19:00:00,
2013-07-25 15:43:00,72.0,57.0,-100.00,WSW,247,6.0,-999.0,59,-99.99,,,-99.99,879.280029,,2013-07-25 19:43:00,
2013-07-25 15:53:00,72.0,57.0,-100.00,WSW,247,6.0,-999.0,59,-99.99,,,-99.99,879.280029,,2013-07-25 19:53:00,
2013-07-25 16:00:00,72.0,57.0,-100.00,WSW,247,6.0,-999.0,59,-99.99,,,-99.99,818.960022,,2013-07-25 20:00:00,
2013-07-25 16:43:00,72.0,57.0,-100.00,WSW,247,6.0,-999.0,59,-99.99,,,-99.99,818.960022,,2013-07-25 20:43:00,
2013-07-25 16:54:00,72.0,57.0,-100.00,WSW,247,6.0,-999.0,59,-99.99,,,-99.99,818.960022,,2013-07-25 20:54:00,
2013-07-25 17:00:00,72.0,56.0,-100.00,WSW,247,6.0,-999.0,57,-99.99,,,-99.99,704.119995,,2013-07-25 21:00:00,
2013-07-25 17:44:00,72.0,56.0,-100.00,WSW,247,6.0,-999.0,57,-99.99,,,-99.99,704.119995,,2013-07-25 21:44:00,
2013-07-25 17:52:00,72.0,56.0,-100.00,WSW,247,6.0,-999.0,57,-99.99,,,-99.99,704.119995,,2013-07-25 21:52:00,
2013-07-25 18:00:00,72.0,57.0,-100.00,WSW,247,6.0,-999.0,60,-99.99,,,-99.99,549.840027,,2013-07-25 22:00:00,
2013-07-25 18:43:00,72.0,57.0,-100.00,WSW,247,6.0,-999.0,60,-99.99,,,-99.99,549.840027,,2013-07-25 22:43:00,
2013-07-25 18:53:00,72.0,57.0,-100.00,WSW,247,6.0,-999.0,60,-99.99,,,-99.99,549.840027,,2013-07-25 22:53:00,
2013-07-25 19:00:00,72.0,59.0,-100.00,WSW,247,5.0,-999.0,63,-99.99,,,-99.99,381.640015,,2013-07-25 23:00:00,
2013-07-25 19:43:00,72.0,59.0,-100.00,WSW,247,5.0,-999.0,63,-99.99,,,-99.99,381.640015,,2013-07-25 23:43:00,
2013-07-25 19:52:00,72.0,59.0,-100.00,WSW,247,5.0,-999.0,63,-99.99,,,-99.99,381.640015,,2013-07-25 23:52:00,
2013-07-25 20:00:00,71.0,58.0,-100.00,WSW,247,5.0,-999.0,63,-99.99,,,-99.99,180.960007,,2013-07-26 00:00:00,
2013-07-25 20:43:00,71.0,58.0,-100.00,WSW,247,5.0,-999.0,63,-99.99,,,-99.99,180.960007,,2013-07-26 00:43:00,
2013-07-25 20:52:00,71.0,58.0,-100.00,WSW,247,5.0,-999.0,63,-99.99,,,-99.99,180.960007,,2013-07-26 00:52:00,
2013-07-25 22:00:00,68.0,50.0,-100.00,SSW,202,5.0,-999.0,53,-99.99,,,-99.99,1.160000,,2013-07-26 02:00:00,
2013-07-25 22:43:00,68.0,50.0,-100.00,SSW,202,5.0,-999.0,53,-99.99,,,-99.99,1.160000,,2013-07-26 02:43:00,
2013-07-25 22:52:00,68.0,50.0,-100.00,SSW,202,5.0,-999.0,53,-99.99,,,-99.99,1.160000,,2013-07-26 02:52:00,
2013-07-25 23:00:00,69.0,47.0,-100.00,South,180,7.0,-999.0,45,-99.99,,,-99.99,0.000000,,2013-07-26 03:00:00,
2013-07-25 23:44:00,69.0,47.0,-100.00,South,180,7.0,-999.0,45,-99.99,,,-99.99,0.000000,,2013-07-26 03:44:00,
2013-07-25 23:53:00,69.0,47.0,-100.00,South,180,7.0,-999.0,45,-99.99,,,-99.99,0.000000,,2013-07-26 03:53:00,